Hither Plains, New York
Current Conditions -  °F | °C
As of 8:11 PM on Monday 22 Dec 2014 (Local Time) from KGON Reporting Station
Overcast Overcast  
Wind Chill: 37°   Ceiling: 2600
Heat Index: 43°   Visibility: 7mi
Dew Point: 39°   Wind: 10mph
Humidity: 86%   Direction: 70°ENE
Pressure: 30.27"   Gusts: NA
Location:  41.0458°N, 71.9469°W
Report Text: KGON 230111Z 07009KT 7SM FEW017 BKN026 OVC039 06/04 A3027 RMK AO2 T00610039
Loading
Personal Weather Stations






























Interactive Weather Map New forecast layout! Learn more

10-Day Weather Forecast

Advertisements
Track Severe Weather on mobile